Time;durP1;ratioP1;P1;durP2;ratioP2;P2;SDS_P1;SDS_P2;PMS_P1;PMS_P2;Temp;Humidity;BMP_temperature;BMP_pressure;BME280_temperature;BME280_humidity;BME280_pressure;Samples;Min_cycle;Max_cycle;Signal;HPM_P1;HPM_P2
2023/07/07 00:00:37;;;;;;;10.05;2.40;;;;;;;13.86;80.27;100478.47;6254450;22;20009;-95
2023/07/07 00:03:03;;;;;;;5.60;2.00;;;;;;;13.85;80.42;100476.78;6254340;22;20012;-96
2023/07/07 00:05:28;;;;;;;6.00;2.03;;;;;;;13.89;80.06;100478.25;6254426;22;20024;-94
2023/07/07 00:07:54;;;;;;;8.18;2.40;;;;;;;13.89;79.96;100480.84;6254392;22;20005;-95
2023/07/07 00:10:20;;;;;;;12.73;1.92;;;;;;;13.77;81.28;100485.13;6254487;22;20005;-96
2023/07/07 00:12:46;;;;;;;7.75;1.77;;;;;;;13.77;81.20;100473.94;6254360;22;20006;-95
2023/07/07 00:15:12;;;;;;;4.32;2.05;;;;;;;13.68;81.75;100476.25;6254582;22;20006;-94
2023/07/07 00:17:41;;;;;;;6.72;2.22;;;;;;;13.67;82.00;100481.53;6254239;22;20317;-94
2023/07/07 00:20:11;;;;;;;5.22;2.20;;;;;;;13.64;82.42;100489.53;6254344;22;20001;-94
2023/07/07 00:22:37;;;;;;;4.10;1.92;;;;;;;13.61;82.84;100480.19;6254120;22;20006;-95
2023/07/07 00:25:03;;;;;;;2.55;1.20;;;;;;;13.51;83.81;100479.19;6254065;22;20325;-94
2023/07/07 00:27:29;;;;;;;3.47;1.80;;;;;;;13.49;84.83;100486.22;6254129;22;20151;-95
2023/07/07 00:29:54;;;;;;;4.50;1.58;;;;;;;13.40;85.93;100481.66;6151172;22;20001;-94
2023/07/07 00:32:20;;;;;;;5.30;2.38;;;;;;;13.27;87.41;100485.09;6253962;22;20033;-95
2023/07/07 00:34:45;;;;;;;4.28;2.10;;;;;;;13.24;87.61;100493.06;6254202;22;20013;-95
2023/07/07 00:37:10;;;;;;;8.90;2.47;;;;;;;13.23;87.98;100495.75;6254185;22;20436;-96
2023/07/07 00:39:36;;;;;;;5.38;2.58;;;;;;;13.24;87.35;100493.06;6150970;22;20413;-95
2023/07/07 00:42:01;;;;;;;7.80;2.85;;;;;;;13.08;88.54;100489.84;6254112;22;20006;-95
2023/07/07 00:44:50;;;;;;;5.75;2.30;;;;;;;12.95;89.71;100491.56;6254186;22;20088;-94
2023/07/07 00:47:16;;;;;;;3.53;2.33;;;;;;;12.91;90.02;100480.59;6253781;22;20096;-94
2023/07/07 00:49:41;;;;;;;6.90;2.72;;;;;;;12.83;90.10;100482.88;6254024;22;20372;-94
2023/07/07 00:52:07;;;;;;;9.40;2.40;;;;;;;12.79;91.04;100474.47;6150875;23;20081;-94
2023/07/07 00:54:35;;;;;;;6.00;2.60;;;;;;;12.68;92.14;100482.13;6253999;22;20450;-94
2023/07/07 00:57:03;;;;;;;4.50;2.00;;;;;;;12.70;91.67;100485.41;6253873;22;20313;-94
2023/07/07 00:59:39;;;;;;;5.15;1.95;;;;;;;12.66;92.60;100481.38;6253965;22;20017;-94
2023/07/07 01:02:12;;;;;;;4.75;1.80;;;;;;;12.62;92.98;100483.34;6150690;23;20017;-95
2023/07/07 01:04:41;;;;;;;3.70;2.13;;;;;;;12.71;92.11;100479.31;6151128;22;20006;-94
2023/07/07 01:07:16;;;;;;;4.90;2.40;;;;;;;12.65;92.87;100477.13;6150994;22;20051;-94
2023/07/07 01:09:41;;;;;;;5.45;2.22;;;;;;;12.63;93.05;100481.56;6150903;22;20006;-94
2023/07/07 01:12:14;;;;;;;5.65;2.17;;;;;;;12.63;93.12;100476.38;6150735;23;20002;-93
2023/07/07 01:14:43;;;;;;;5.55;2.20;;;;;;;12.59;93.48;100475.78;6253785;22;20008;-93
2023/07/07 01:17:28;;;;;;;2.78;2.00;;;;;;;12.56;94.47;100490.69;6253372;22;20002;-94
2023/07/07 01:20:09;;;;;;;5.20;1.90;;;;;;;12.54;94.41;100472.66;6254035;22;20009;-93
2023/07/07 01:22:50;;;;;;;6.70;2.15;;;;;;;12.48;94.66;100482.56;6253836;22;20006;-94
2023/07/07 01:26:06;;;;;;;5.93;2.25;;;;;;;12.50;95.25;100480.72;6254025;22;20009;-93
2023/07/07 01:28:34;;;;;;;4.20;2.00;;;;;;;12.43;95.82;100477.69;6176816;22;20016;-92
2023/07/07 01:31:27;;;;;;;6.13;2.15;;;;;;;12.31;96.67;100479.31;6254102;22;20021;-93
2023/07/07 01:33:53;;;;;;;4.13;1.92;;;;;;;12.36;96.50;100479.00;6150623;23;20006;-94
2023/07/07 01:36:19;;;;;;;4.35;1.98;;;;;;;12.27;97.41;100484.81;6150793;23;20135;-94
2023/07/07 01:38:46;;;;;;;3.13;1.95;;;;;;;12.28;97.52;100491.63;6253480;22;20451;-95
2023/07/07 01:41:21;;;;;;;5.70;1.92;;;;;;;12.25;97.98;100482.31;6253496;22;20025;-93
2023/07/07 01:44:09;;;;;;;4.05;2.05;;;;;;;12.18;98.84;100475.84;6150851;22;20465;-93
2023/07/07 01:46:42;;;;;;;3.88;2.35;;;;;;;12.14;98.56;100484.72;6240981;22;20005;-95
2023/07/07 01:49:18;;;;;;;4.82;2.20;;;;;;;12.20;98.30;100484.34;6253280;22;20002;-94
2023/07/07 01:51:54;;;;;;;4.07;2.35;;;;;;;12.20;98.84;100477.41;6253520;22;20002;-93
2023/07/07 01:54:21;;;;;;;6.47;2.20;;;;;;;12.17;99.09;100479.38;6150760;23;20012;-93
2023/07/07 01:56:48;;;;;;;5.20;2.83;;;;;;;12.16;97.39;100483.69;6253409;22;20448;-95
2023/07/07 01:59:15;;;;;;;5.88;2.28;;;;;;;12.19;97.91;100487.84;6151064;23;20005;-95
2023/07/07 02:01:42;;;;;;;5.22;2.25;;;;;;;12.17;98.31;100481.97;6253453;22;20016;-95
2023/07/07 02:04:07;;;;;;;3.72;1.98;;;;;;;12.12;98.86;100476.22;6150560;23;20028;-94
2023/07/07 02:06:33;;;;;;;6.15;2.47;;;;;;;12.20;98.21;100489.53;6150626;23;20001;-94
2023/07/07 02:08:58;;;;;;;3.95;1.83;;;;;;;12.21;97.94;100475.66;6253528;22;20138;-94
2023/07/07 02:11:23;;;;;;;5.35;2.75;;;;;;;12.16;99.14;100486.28;6253456;22;20002;-95
2023/07/07 02:13:49;;;;;;;7.40;2.75;;;;;;;12.17;98.72;100484.56;6150563;23;20077;-95
2023/07/07 02:16:14;;;;;;;4.18;2.13;;;;;;;12.14;98.72;100482.13;6150522;23;20001;-95
2023/07/07 02:18:41;;;;;;;4.10;2.40;;;;;;;12.13;99.39;100477.91;6150887;23;20041;-94
2023/07/07 02:21:07;;;;;;;4.18;1.88;;;;;;;12.31;98.68;100476.72;6253040;22;20005;-94
2023/07/07 02:23:32;;;;;;;3.50;2.30;;;;;;;12.19;98.79;100483.53;6150394;23;20029;-96
2023/07/07 02:25:58;;;;;;;7.03;2.67;;;;;;;12.33;98.47;100480.03;6253513;22;20088;-94
2023/07/07 02:28:23;;;;;;;6.43;2.58;;;;;;;12.30;97.96;100469.88;6253078;22;20330;-94
2023/07/07 02:30:49;;;;;;;4.70;1.95;;;;;;;12.35;98.43;100467.00;6253045;22;20416;-94
2023/07/07 02:33:15;;;;;;;5.75;2.05;;;;;;;12.33;98.03;100468.88;6253050;22;20008;-94
2023/07/07 02:35:41;;;;;;;7.00;3.08;;;;;;;12.28;98.85;100463.97;6253008;22;20009;-95
2023/07/07 02:38:06;;;;;;;7.93;2.05;;;;;;;12.32;99.55;100473.22;6253110;22;20080;-94
2023/07/07 02:40:32;;;;;;;3.78;2.00;;;;;;;12.23;100.00;100463.44;6253977;22;20012;-95
2023/07/07 02:42:57;;;;;;;5.10;1.80;;;;;;;12.19;100.00;100467.16;6252917;22;20040;-95
2023/07/07 02:45:22;;;;;;;3.60;2.30;;;;;;;12.13;100.00;100457.19;6253244;22;20484;-94
2023/07/07 02:47:48;;;;;;;5.38;2.10;;;;;;;12.16;100.00;100457.00;6252748;22;20343;-94
2023/07/07 02:50:13;;;;;;;3.97;1.58;;;;;;;12.16;100.00;100467.34;6252832;22;20002;-94
2023/07/07 02:52:38;;;;;;;2.95;1.85;;;;;;;12.11;100.00;100456.47;6150497;23;20477;-94
2023/07/07 02:55:04;;;;;;;4.43;1.83;;;;;;;12.08;100.00;100459.25;6253088;22;20460;-94
2023/07/07 02:57:30;;;;;;;6.25;2.53;;;;;;;12.08;100.00;100456.66;6253249;22;20029;-94
2023/07/07 02:59:55;;;;;;;3.25;1.92;;;;;;;11.99;100.00;100452.91;6252703;22;20020;-94
2023/07/07 03:02:20;;;;;;;3.28;2.00;;;;;;;11.90;100.00;100451.72;6252741;22;20011;-93
2023/07/07 03:04:49;;;;;;;4.70;2.08;;;;;;;11.89;100.00;100455.22;6150149;23;20073;-93
2023/07/07 03:07:14;;;;;;;4.55;2.13;;;;;;;11.90;100.00;100454.31;6252807;22;20016;-95
2023/07/07 03:09:40;;;;;;;6.20;2.17;;;;;;;11.89;100.00;100460.41;6150098;22;20037;-93
2023/07/07 03:12:06;;;;;;;4.88;1.92;;;;;;;11.85;100.00;100464.09;6252875;22;20010;-95
2023/07/07 03:14:31;;;;;;;5.55;2.10;;;;;;;11.82;100.00;100463.44;6252604;22;20001;-94
2023/07/07 03:16:57;;;;;;;5.30;2.38;;;;;;;11.67;100.00;100462.63;6150218;23;20051;-93
2023/07/07 03:19:23;;;;;;;3.33;2.17;;;;;;;11.69;100.00;100463.38;6150066;22;19998;-95
2023/07/07 03:21:49;;;;;;;4.88;2.33;;;;;;;11.69;100.00;100453.03;6252511;22;20013;-94
2023/07/07 03:24:15;;;;;;;5.22;2.30;;;;;;;11.65;100.00;100461.91;6252870;22;20056;-93
2023/07/07 03:26:40;;;;;;;3.95;2.25;;;;;;;11.61;100.00;100455.25;6149923;23;20451;-94
2023/07/07 03:29:06;;;;;;;3.85;2.00;;;;;;;11.55;100.00;100446.94;6150107;23;20001;-94
2023/07/07 03:31:32;;;;;;;4.95;2.03;;;;;;;11.53;100.00;100454.00;6149827;22;20083;-94
2023/07/07 03:34:00;;;;;;;3.20;1.77;;;;;;;11.64;100.00;100449.91;6252500;22;20036;-94
2023/07/07 03:36:31;;;;;;;4.93;2.53;;;;;;;11.67;100.00;100449.72;6150178;23;20001;-94
2023/07/07 03:38:57;;;;;;;6.45;1.77;;;;;;;11.62;100.00;100439.66;6252851;22;20008;-94
2023/07/07 03:41:25;;;;;;;6.68;2.30;;;;;;;11.64;100.00;100434.41;6150498;22;20068;-94
2023/07/07 03:43:53;;;;;;;4.53;2.10;;;;;;;11.56;100.00;100433.13;6151382;23;20093;-94
2023/07/07 03:46:20;;;;;;;5.63;2.35;;;;;;;11.53;100.00;100438.47;6254458;22;20009;-94
2023/07/07 03:48:47;;;;;;;7.40;2.20;;;;;;;11.52;100.00;100431.63;6150997;23;20014;-94
2023/07/07 03:51:14;;;;;;;5.80;2.22;;;;;;;11.47;100.00;100433.66;6254054;22;20112;-94
2023/07/07 03:53:41;;;;;;;2.83;1.73;;;;;;;11.45;100.00;100445.84;6254440;22;20029;-95
2023/07/07 03:56:07;;;;;;;3.85;2.58;;;;;;;11.43;100.00;100436.53;6151223;23;20073;-95
2023/07/07 03:58:33;;;;;;;5.78;2.78;;;;;;;11.40;100.00;100444.47;6254320;22;20029;-94
2023/07/07 04:01:03;;;;;;;7.18;2.70;;;;;;;11.33;100.00;100437.09;6254499;22;20325;-93
2023/07/07 04:03:28;;;;;;;6.82;2.80;;;;;;;11.44;100.00;100441.63;6254528;22;20447;-95
2023/07/07 04:05:55;;;;;;;3.78;2.40;;;;;;;11.35;100.00;100437.00;6255136;22;20030;-93
2023/07/07 04:08:25;;;;;;;5.78;2.47;;;;;;;11.40;100.00;100434.16;6254046;22;20093;-93
2023/07/07 04:11:03;;;;;;;3.22;2.22;;;;;;;11.31;100.00;100435.53;6151200;22;20006;-94
2023/07/07 04:13:30;;;;;;;3.83;2.13;;;;;;;11.42;100.00;100440.88;6254456;22;20030;-94
2023/07/07 04:16:20;;;;;;;4.80;2.20;;;;;;;11.39;100.00;100442.81;6151436;22;20009;-94
2023/07/07 04:18:46;;;;;;;5.35;2.63;;;;;;;11.37;100.00;100436.91;6151119;22;20080;-93
2023/07/07 04:21:18;;;;;;;6.70;2.50;;;;;;;11.33;100.00;100444.00;6151138;22;20036;-95
2023/07/07 04:23:46;;;;;;;9.07;3.83;;;;;;;11.30;100.00;100444.22;6254643;22;20012;-93
2023/07/07 04:26:12;;;;;;;6.55;3.13;;;;;;;11.27;100.00;100444.41;6151208;22;20019;-95
2023/07/07 04:28:38;;;;;;;3.90;3.03;;;;;;;11.25;100.00;100443.66;6254569;22;20013;-94
2023/07/07 04:31:06;;;;;;;7.03;2.58;;;;;;;11.31;100.00;100440.69;6151039;22;20051;-93
2023/07/07 04:33:32;;;;;;;6.32;2.78;;;;;;;11.34;100.00;100437.94;6254404;22;20013;-94
2023/07/07 04:36:00;;;;;;;6.97;2.88;;;;;;;11.37;100.00;100439.50;6254519;22;20431;-93
2023/07/07 04:38:32;;;;;;;5.18;2.65;;;;;;;11.39;100.00;100438.50;6254221;22;20084;-94
2023/07/07 04:41:05;;;;;;;3.70;1.80;;;;;;;11.37;100.00;100442.09;6253998;22;20012;-94
2023/07/07 04:43:32;;;;;;;2.75;1.85;;;;;;;11.43;100.00;100436.53;6254297;22;20005;-95
2023/07/07 04:45:58;;;;;;;2.53;1.42;;;;;;;11.51;100.00;100440.31;6151274;23;20098;-93
2023/07/07 04:48:23;;;;;;;3.67;2.08;;;;;;;11.59;100.00;100442.44;6150905;23;20428;-94
2023/07/07 04:50:49;;;;;;;3.97;1.75;;;;;;;11.62;100.00;100444.00;6150821;22;20002;-93
2023/07/07 04:53:14;;;;;;;6.78;1.85;;;;;;;11.66;100.00;100443.72;6253942;22;20032;-94
2023/07/07 04:55:42;;;;;;;2.28;1.65;;;;;;;11.63;100.00;100448.22;6151189;23;20002;-94
2023/07/07 04:58:08;;;;;;;5.53;2.25;;;;;;;11.61;100.00;100450.06;6151056;23;20005;-93
2023/07/07 05:00:33;;;;;;;4.50;2.30;;;;;;;11.57;100.00;100450.28;6150619;22;20025;-94
2023/07/07 05:02:59;;;;;;;4.88;2.28;;;;;;;11.63;100.00;100445.63;6253705;22;20005;-94
2023/07/07 05:05:24;;;;;;;4.55;2.00;;;;;;;11.65;100.00;100446.38;6254063;22;20006;-93
2023/07/07 05:07:50;;;;;;;5.60;2.22;;;;;;;11.64;100.00;100447.31;6253647;22;20341;-93
2023/07/07 05:10:15;;;;;;;4.40;2.03;;;;;;;11.66;100.00;100442.91;6253570;22;20006;-94
2023/07/07 05:12:41;;;;;;;6.28;2.53;;;;;;;11.67;100.00;100439.38;6254076;22;20064;-94
2023/07/07 05:15:06;;;;;;;2.90;1.95;;;;;;;11.74;100.00;100436.31;6151008;23;20085;-94
2023/07/07 05:17:32;;;;;;;3.15;1.60;;;;;;;11.75;100.00;100442.28;6253774;22;20005;-94
2023/07/07 05:19:57;;;;;;;2.53;1.55;;;;;;;11.81;100.00;100441.94;6150642;22;20009;-94
2023/07/07 05:22:22;;;;;;;4.70;1.98;;;;;;;11.91;100.00;100444.81;6151014;23;20013;-95
2023/07/07 05:24:48;;;;;;;4.38;2.10;;;;;;;11.92;100.00;100444.69;6253489;22;20040;-94
2023/07/07 05:27:14;;;;;;;7.43;3.30;;;;;;;11.97;100.00;100445.25;6150809;23;20338;-94
2023/07/07 05:29:40;;;;;;;8.95;3.22;;;;;;;11.98;100.00;100449.47;6253797;22;20005;-96
2023/07/07 05:32:06;;;;;;;4.13;2.20;;;;;;;12.03;100.00;100440.63;6150887;23;20458;-94
2023/07/07 05:34:31;;;;;;;9.18;2.60;;;;;;;12.04;100.00;100442.25;6253475;22;20010;-94
2023/07/07 05:36:56;;;;;;;4.47;2.35;;;;;;;12.11;100.00;100449.53;6253149;22;19998;-95
2023/07/07 05:39:22;;;;;;;4.93;1.98;;;;;;;12.19;100.00;100451.63;6150638;22;20009;-94
2023/07/07 05:41:47;;;;;;;3.55;1.70;;;;;;;12.22;100.00;100451.44;6253434;22;20009;-94
2023/07/07 05:44:12;;;;;;;3.97;1.77;;;;;;;12.30;100.00;100458.72;6253711;22;20081;-95
2023/07/07 05:46:38;;;;;;;4.20;1.70;;;;;;;12.37;98.69;100453.03;6253591;22;20499;-95
2023/07/07 05:49:03;;;;;;;3.22;1.70;;;;;;;12.50;97.86;100447.88;6253555;22;20494;-94
2023/07/07 05:51:28;;;;;;;5.97;1.90;;;;;;;12.59;96.03;100444.72;6253256;22;20002;-95
2023/07/07 05:53:54;;;;;;;2.83;1.50;;;;;;;12.65;96.04;100448.63;6253305;22;20002;-95
2023/07/07 05:56:23;;;;;;;5.95;2.13;;;;;;;12.76;94.18;100451.38;6253483;22;20016;-94
2023/07/07 05:58:50;;;;;;;4.10;1.65;;;;;;;12.88;92.96;100454.91;6150482;23;20013;-94
2023/07/07 06:01:16;;;;;;;3.78;1.42;;;;;;;13.02;93.22;100461.72;6253460;22;20033;-95
2023/07/07 06:03:42;;;;;;;5.05;1.70;;;;;;;13.12;90.36;100460.19;6150615;23;20055;-95
2023/07/07 06:06:08;;;;;;;6.65;1.77;;;;;;;13.26;90.17;100467.88;6253245;22;20010;-95
2023/07/07 06:08:33;;;;;;;5.93;1.55;;;;;;;13.39;88.55;100464.47;6253723;22;20031;-94
2023/07/07 06:10:59;;;;;;;4.75;1.85;;;;;;;13.52;87.61;100454.06;6150496;22;20001;-94
2023/07/07 06:13:25;;;;;;;2.28;1.20;;;;;;;13.75;86.37;100475.78;6150773;23;20009;-95
2023/07/07 06:15:51;;;;;;;3.65;1.65;;;;;;;15.80;76.49;100467.50;6253485;22;20344;-94
2023/07/07 06:18:17;;;;;;;7.40;1.60;;;;;;;19.31;59.07;100459.94;6150665;23;20013;-95
2023/07/07 06:20:55;;;;;;;3.40;1.45;;;;;;;21.78;51.46;100474.88;6253088;22;20075;-94
2023/07/07 06:23:21;;;;;;;2.17;1.58;;;;;;;23.22;47.59;100481.50;6253515;22;20010;-94
2023/07/07 06:25:47;;;;;;;3.95;1.48;;;;;;;24.34;44.17;100482.06;6151006;23;19997;-94
2023/07/07 06:28:16;;;;;;;4.68;1.75;;;;;;;24.53;42.64;100486.06;6253068;22;20013;-93
2023/07/07 06:30:42;;;;;;;4.85;1.38;;;;;;;25.39;40.38;100489.19;6253343;22;20115;-94
2023/07/07 06:33:07;;;;;;;4.07;1.33;;;;;;;26.37;39.18;100495.75;6252974;22;20450;-95
2023/07/07 06:35:33;;;;;;;3.95;1.35;;;;;;;26.63;38.03;100494.38;6252926;22;20041;-95
2023/07/07 06:37:58;;;;;;;4.32;1.63;;;;;;;27.28;36.73;100495.81;6253079;22;20084;-95
2023/07/07 06:40:23;;;;;;;2.70;1.20;;;;;;;28.26;35.59;100497.34;6150449;22;20009;-95
2023/07/07 06:42:54;;;;;;;4.72;1.63;;;;;;;27.94;35.73;100491.78;6253157;22;20458;-95
2023/07/07 06:45:20;;;;;;;4.63;1.30;;;;;;;29.44;33.16;100486.81;6253370;22;20002;-95
2023/07/07 06:47:45;;;;;;;3.15;1.38;;;;;;;28.49;34.40;100487.19;6253565;22;21023;-96
2023/07/07 06:50:20;;;;;;;3.40;1.17;;;;;;;29.23;34.51;100483.41;6253286;22;20009;-96
2023/07/07 06:52:45;;;;;;;2.72;1.98;;;;;;;29.38;33.44;100483.13;6253800;22;20005;-96
2023/07/07 06:55:10;;;;;;;4.28;1.20;;;;;;;29.36;33.16;100490.53;6253569;22;20029;-95
2023/07/07 06:57:36;;;;;;;7.55;2.03;;;;;;;30.17;33.02;100481.09;6253213;22;20328;-95
2023/07/07 07:00:01;;;;;;;7.03;1.20;;;;;;;29.91;32.41;100478.63;6253179;22;20005;-96
2023/07/07 07:02:27;;;;;;;2.70;1.23;;;;;;;30.00;31.75;100487.97;6252943;22;20091;-96
2023/07/07 07:04:52;;;;;;;7.15;1.75;;;;;;;29.92;32.12;100477.56;6253080;22;20006;-96
2023/07/07 07:07:17;;;;;;;2.53;1.23;;;;;;;30.12;32.42;100477.44;6253099;22;20032;-96
2023/07/07 07:09:43;;;;;;;2.28;0.90;;;;;;;30.04;32.23;100482.00;6253193;22;20421;-96
2023/07/07 07:12:09;;;;;;;2.28;1.00;;;;;;;30.89;31.36;100483.38;6253186;22;20035;-95
2023/07/07 07:14:34;;;;;;;2.50;1.17;;;;;;;31.69;30.58;100490.47;6253141;22;20002;-95
2023/07/07 07:16:59;;;;;;;3.58;1.23;;;;;;;30.99;31.12;100493.53;6254759;22;20008;-95
2023/07/07 07:19:25;;;;;;;6.03;1.40;;;;;;;30.92;31.23;100482.94;6254978;22;20055;-96
2023/07/07 07:21:50;;;;;;;5.95;1.60;;;;;;;31.13;30.90;100489.69;6255316;22;20490;-95
2023/07/07 07:24:18;;;;;;;5.30;1.52;;;;;;;31.86;30.75;100482.63;6254976;22;20002;-96
2023/07/07 07:26:43;;;;;;;2.45;1.15;;;;;;;31.37;31.06;100490.63;6255345;22;20005;-95
2023/07/07 07:29:08;;;;;;;4.00;1.05;;;;;;;30.82;31.34;100483.41;6254913;22;20340;-96
2023/07/07 07:31:34;;;;;;;7.32;1.40;;;;;;;30.56;31.63;100481.03;6254803;22;20012;-96
2023/07/07 07:34:22;;;;;;;4.60;1.50;;;;;;;29.97;33.20;100478.59;6255065;22;20328;-96
2023/07/07 07:36:47;;;;;;;1.83;1.05;;;;;;;29.91;32.94;100481.28;6255331;22;20006;-95
2023/07/07 07:39:13;;;;;;;4.05;1.90;;;;;;;29.94;32.94;100475.50;6255313;22;20459;-95
2023/07/07 07:41:38;;;;;;;2.53;1.00;;;;;;;28.75;34.59;100483.72;6254683;22;20005;-96
2023/07/07 07:44:03;;;;;;;4.43;1.30;;;;;;;28.99;34.62;100478.75;6151663;23;20479;-96
2023/07/07 07:46:29;;;;;;;2.60;1.50;;;;;;;28.65;34.88;100477.16;6254952;22;20005;-96
2023/07/07 07:48:54;;;;;;;5.45;1.70;;;;;;;27.99;35.70;100484.03;6254418;22;20006;-95
2023/07/07 07:51:19;;;;;;;4.57;1.27;;;;;;;27.51;37.10;100486.75;6254371;22;20506;-95
2023/07/07 07:53:45;;;;;;;2.17;1.13;;;;;;;28.57;36.29;100473.69;6256870;22;20089;-95
2023/07/07 07:56:10;;;;;;;4.70;1.50;;;;;;;28.75;35.67;100481.06;6151213;23;20036;-96
2023/07/07 07:58:37;;;;;;;3.83;1.25;;;;;;;28.55;36.15;100483.69;6254672;22;20014;-96
2023/07/07 08:01:02;;;;;;;3.42;1.30;;;;;;;28.34;36.79;100483.91;6254207;22;20009;-96
2023/07/07 08:03:28;;;;;;;3.08;1.33;;;;;;;28.65;36.75;100477.16;6151499;23;20355;-96
2023/07/07 08:05:53;;;;;;;6.70;1.85;;;;;;;28.21;36.99;100476.72;6254644;22;20016;-96
2023/07/07 08:08:18;;;;;;;4.68;1.65;;;;;;;28.16;36.92;100477.34;6254098;22;20009;-96
2023/07/07 08:10:44;;;;;;;3.08;1.23;;;;;;;28.32;36.85;100473.47;6254354;22;20010;-96
2023/07/07 08:13:09;;;;;;;2.38;1.10;;;;;;;28.60;37.02;100469.81;6254457;22;20451;-95
2023/07/07 08:15:34;;;;;;;7.47;1.40;;;;;;;27.62;38.46;100464.97;6254506;22;20011;-95
2023/07/07 08:18:00;;;;;;;3.00;1.35;;;;;;;28.24;37.60;100464.88;6254509;22;20002;-95
2023/07/07 08:20:27;;;;;;;2.47;0.93;;;;;;;28.64;36.98;100463.06;6254104;22;20020;-96
2023/07/07 08:22:53;;;;;;;3.08;1.35;;;;;;;28.58;37.47;100470.03;6254722;22;20029;-96
2023/07/07 08:25:19;;;;;;;4.18;1.55;;;;;;;28.64;36.76;100465.72;6254409;22;20013;-95
2023/07/07 08:27:44;;;;;;;8.43;1.58;;;;;;;28.43;37.71;100469.38;6151827;23;20014;-96
2023/07/07 08:30:10;;;;;;;2.20;1.00;;;;;;;28.28;37.25;100460.81;6255438;22;20041;-96
2023/07/07 08:32:36;;;;;;;4.82;1.30;;;;;;;28.29;38.20;100462.47;6256282;22;19997;-96
2023/07/07 08:35:01;;;;;;;2.33;1.08;;;;;;;27.53;38.36;100455.53;6254366;22;20005;-96
2023/07/07 08:37:27;;;;;;;2.08;1.15;;;;;;;28.62;36.77;100459.00;6254830;22;20012;-96
2023/07/07 08:39:53;;;;;;;1.83;1.00;;;;;;;28.70;35.55;100453.47;6255545;22;20002;-96
2023/07/07 08:42:24;;;;;;;3.42;1.45;;;;;;;27.81;36.50;100455.41;6254539;22;20344;-96
2023/07/07 08:44:50;;;;;;;3.50;1.30;;;;;;;27.42;36.45;100456.13;6254415;22;20067;-96
2023/07/07 08:47:45;;;;;;;4.03;1.13;;;;;;;27.79;35.68;100448.69;6254505;22;20323;-96
2023/07/07 08:50:15;;;;;;;5.95;1.55;;;;;;;28.44;36.16;100449.78;6151525;22;20240;-96
2023/07/07 08:53:11;;;;;;;3.78;1.30;;;;;;;29.15;35.24;100450.94;6254617;22;20037;-96
2023/07/07 08:56:15;;;;;;;2.40;1.40;;;;;;;29.45;34.14;100444.03;6254202;22;20042;-96
2023/07/07 08:58:53;;;;;;;5.57;1.90;;;;;;;29.52;33.36;100449.31;6234362;22;20055;-96
2023/07/07 09:01:41;;;;;;;3.95;1.77;;;;;;;28.22;34.88;100451.03;6254600;22;20016;-96
2023/07/07 09:04:28;;;;;;;5.35;1.17;;;;;;;28.43;35.48;100445.47;6254970;22;20005;-96
2023/07/07 09:07:15;;;;;;;3.42;1.33;;;;;;;29.02;35.27;100449.91;6255169;22;20032;-96
2023/07/07 09:09:40;;;;;;;3.28;1.35;;;;;;;28.92;34.45;100452.22;6254347;22;20031;-96
2023/07/07 09:12:21;;;;;;;2.75;1.20;;;;;;;29.56;33.29;100444.41;6254234;22;20041;-96
2023/07/07 09:14:51;;;;;;;6.93;1.40;;;;;;;28.80;34.16;100453.88;6254850;22;20088;-96
2023/07/07 09:17:28;;;;;;;4.72;1.27;;;;;;;27.79;35.50;100440.72;6254916;22;20006;-96
2023/07/07 09:19:56;;;;;;;1.65;1.10;;;;;;;27.43;36.18;100452.44;6254375;22;20012;-96
2023/07/07 09:22:38;;;;;;;2.72;1.10;;;;;;;28.89;35.44;100443.81;6254154;22;20001;-96
2023/07/07 09:25:14;;;;;;;2.28;1.20;;;;;;;29.40;33.00;100443.06;6253643;22;20011;-95
2023/07/07 09:27:43;;;;;;;4.07;1.50;;;;;;;28.58;34.87;100446.13;6254519;22;20014;-96
2023/07/07 09:30:27;;;;;;;3.80;1.35;;;;;;;29.91;33.44;100444.03;6254645;22;20428;-96
2023/07/07 09:32:52;;;;;;;5.18;1.48;;;;;;;29.65;33.19;100451.09;6254705;22;20005;-96
2023/07/07 09:35:21;;;;;;;5.68;1.83;;;;;;;29.90;32.39;100445.88;6253943;22;20302;-96
2023/07/07 09:38:02;;;;;;;3.45;1.25;;;;;;;29.90;32.74;100453.00;6253819;22;20006;-96
2023/07/07 09:40:47;;;;;;;2.28;1.13;;;;;;;29.46;34.01;100450.19;6151730;22;20006;-96
2023/07/07 09:43:38;;;;;;;3.70;1.50;;;;;;;29.57;33.80;100448.69;6151211;23;20470;-96
2023/07/07 09:46:30;;;;;;;4.20;1.33;;;;;;;29.82;32.70;100446.94;6254038;22;20454;-96
2023/07/07 09:49:18;;;;;;;3.15;1.27;;;;;;;29.71;34.11;100442.31;6254728;22;20014;-96
2023/07/07 09:51:55;;;;;;;2.17;1.38;;;;;;;29.47;33.56;100445.69;6151204;23;20012;-96
2023/07/07 09:54:22;;;;;;;2.75;1.20;;;;;;;27.94;35.23;100444.84;6254462;22;20013;-96
2023/07/07 09:57:12;;;;;;;3.17;1.63;;;;;;;29.50;33.91;100447.91;6254113;22;20432;-96
2023/07/07 09:59:43;;;;;;;3.45;1.25;;;;;;;27.95;35.49;100445.69;6254233;22;20002;-96
2023/07/07 10:02:14;;;;;;;6.65;1.40;;;;;;;29.17;33.73;100451.53;6254278;22;20010;-96
2023/07/07 10:04:45;;;;;;;5.15;1.23;;;;;;;30.37;32.75;100450.88;6253654;22;20013;-95
2023/07/07 10:07:14;;;;;;;4.45;1.52;;;;;;;30.81;33.05;100451.66;6253797;22;20044;-96
2023/07/07 10:09:39;;;;;;;2.30;1.08;;;;;;;30.56;32.44;100446.41;6253245;22;20001;-96
2023/07/07 10:12:09;;;;;;;3.00;1.25;;;;;;;29.69;33.20;100446.22;6253674;22;20111;-96
2023/07/07 10:14:36;;;;;;;3.22;1.10;;;;;;;30.55;31.97;100442.91;6150775;23;20004;-96
2023/07/07 10:17:08;;;;;;;3.80;1.02;;;;;;;30.42;32.60;100440.38;6253832;22;20006;-96
2023/07/07 10:19:40;;;;;;;2.95;1.20;;;;;;;29.99;33.27;100446.41;6253602;22;20107;-95
2023/07/07 10:22:07;;;;;;;4.03;1.42;;;;;;;29.49;34.72;100433.00;6253323;22;20096;-96
2023/07/07 10:24:32;;;;;;;2.80;1.30;;;;;;;29.40;34.79;100432.41;6253298;22;20081;-96
2023/07/07 10:26:58;;;;;;;2.90;1.42;;;;;;;28.92;34.70;100430.09;6253483;22;20036;-96
2023/07/07 10:29:31;;;;;;;3.08;1.33;;;;;;;28.85;35.45;100424.00;6253284;22;20044;-96
2023/07/07 10:31:56;;;;;;;3.90;1.20;;;;;;;30.08;34.65;100431.81;6253367;22;20048;-95
2023/07/07 10:34:27;;;;;;;2.55;1.17;;;;;;;29.79;33.60;100431.41;6252994;22;20009;-96
2023/07/07 10:36:53;;;;;;;2.75;1.70;;;;;;;29.35;34.68;100421.59;6253052;22;20001;-95
2023/07/07 10:39:22;;;;;;;4.20;1.38;;;;;;;29.43;34.91;100427.50;6150456;22;20008;-96
2023/07/07 10:41:47;;;;;;;6.78;2.28;;;;;;;28.23;35.99;100426.91;6253156;22;19998;-95
2023/07/07 10:44:12;;;;;;;3.75;1.63;;;;;;;28.07;36.81;100428.16;6253361;22;20005;-96
2023/07/07 10:46:38;;;;;;;3.17;1.60;;;;;;;27.87;37.75;100422.84;6253061;22;20182;-96
2023/07/07 10:49:04;;;;;;;3.25;1.23;;;;;;;28.66;36.99;100425.69;6252682;22;20050;-96
2023/07/07 10:52:11;;;;;;;5.10;1.23;;;;;;;29.84;35.80;100422.78;6253379;22;20420;-96
2023/07/07 10:54:54;;;;;;;2.95;1.13;;;;;;;30.52;33.89;100432.69;6253110;22;20005;-96
2023/07/07 10:57:44;;;;;;;9.77;1.67;;;;;;;29.73;34.42;100421.63;6253124;22;20009;-96
2023/07/07 11:00:28;;;;;;;2.22;1.23;;;;;;;30.04;34.75;100422.63;6252955;22;20006;-96
2023/07/07 11:03:15;;;;;;;7.70;1.90;;;;;;;31.73;32.39;100419.59;6253435;22;20006;-96
2023/07/07 11:05:56;;;;;;;3.38;1.42;;;;;;;28.97;35.43;100417.84;6252875;22;20009;-96
2023/07/07 11:08:39;;;;;;;9.50;1.92;;;;;;;30.40;33.78;100419.28;6252861;22;20001;-96
2023/07/07 11:11:31;;;;;;;3.60;1.50;;;;;;;30.28;33.45;100423.69;6252973;22;20010;-96
2023/07/07 11:14:17;;;;;;;2.90;1.25;;;;;;;30.32;34.36;100424.06;6253235;22;20014;-96
2023/07/07 11:17:04;;;;;;;5.55;1.30;;;;;;;29.82;33.88;100419.50;6150215;23;20374;-96
2023/07/07 11:20:12;;;;;;;2.67;1.55;;;;;;;31.12;32.64;100414.22;6252986;22;20005;-96
2023/07/07 11:23:02;;;;;;;3.35;1.30;;;;;;;30.72;32.41;100419.16;6150046;23;20081;-96
2023/07/07 11:26:05;;;;;;;3.22;1.23;;;;;;;31.09;33.04;100414.69;6253508;22;20020;-96
2023/07/07 11:28:59;;;;;;;5.72;1.40;;;;;;;30.83;33.01;100407.81;6253433;22;20080;-96
2023/07/07 11:31:31;;;;;;;2.85;1.40;;;;;;;29.72;34.07;100419.97;6234563;22;20016;-96
2023/07/07 11:34:18;;;;;;;2.95;1.58;;;;;;;28.81;35.27;100420.94;6253891;22;20013;-96